Time;durP1;ratioP1;P1;durP2;ratioP2;P2;SDS_P1;SDS_P2;PMS_P1;PMS_P2;Temp;Humidity;BMP_temperature;BMP_pressure;BME280_temperature;BME280_humidity;BME280_pressure;Samples;Min_cycle;Max_cycle;Signal;HPM_P1;HPM_P2
2021/12/11 00:02:09;;;;;;;9.25;6.55;;;20.30;45.80;;;;;;6245124;28;20517;-72
2021/12/11 00:05:16;;;;;;;10.48;7.75;;;20.30;45.80;;;;;;6245364;28;20371;-72
2021/12/11 00:08:22;;;;;;;9.90;6.93;;;20.30;45.80;;;;;;6244712;28;20029;-72
2021/12/11 00:11:36;;;;;;;10.73;7.60;;;20.30;45.80;;;;;;6243557;28;20029;-73
2021/12/11 00:14:40;;;;;;;10.57;7.65;;;20.30;46.60;;;;;;6250253;28;20067;-72
2021/12/11 00:17:41;;;;;;;10.52;7.78;;;20.30;45.90;;;;;;6268035;28;20075;-72
2021/12/11 00:20:50;;;;;;;10.57;7.32;;;20.30;45.90;;;;;;6243344;28;20089;-72
2021/12/11 00:24:17;;;;;;;9.40;6.80;;;20.30;45.90;;;;;;6244597;28;20048;-71
2021/12/11 00:27:24;;;;;;;9.88;7.55;;;20.30;45.90;;;;;;6245385;28;20060;-72
2021/12/11 00:30:28;;;;;;;9.95;6.90;;;20.30;45.90;;;;;;6262306;28;20581;-73
2021/12/11 00:33:33;;;;;;;10.75;7.78;;;20.30;46.00;;;;;;6243838;28;20037;-72
2021/12/11 00:36:34;;;;;;;10.95;7.65;;;20.30;45.90;;;;;;6243006;28;20025;-72
2021/12/11 00:39:43;;;;;;;10.40;6.90;;;20.30;45.90;;;;;;6242901;28;20022;-72
2021/12/11 00:42:49;;;;;;;9.15;6.72;;;20.30;46.00;;;;;;6244242;28;20030;-74
2021/12/11 00:45:50;;;;;;;9.73;6.88;;;20.30;46.00;;;;;;6244401;28;20083;-72
2021/12/11 00:48:51;;;;;;;9.25;7.30;;;20.20;45.90;;;;;;6242491;28;20033;-72
2021/12/11 00:51:56;;;;;;;10.02;7.20;;;20.30;46.00;;;;;;6244041;28;20029;-73
2021/12/11 00:54:57;;;;;;;9.23;6.55;;;20.30;46.00;;;;;;6265238;28;20123;-72
2021/12/11 00:58:12;;;;;;;9.45;6.95;;;20.30;46.00;;;;;;6255485;28;20057;-72
2021/12/11 01:01:18;;;;;;;8.98;6.63;;;20.20;45.90;;;;;;6243934;28;20030;-72
2021/12/11 01:04:23;;;;;;;8.75;6.40;;;20.20;45.90;;;;;;6239580;28;20116;-73
2021/12/11 01:07:29;;;;;;;9.15;6.55;;;20.20;45.90;;;;;;6242612;28;20388;-72
2021/12/11 01:10:31;;;;;;;9.98;6.72;;;20.20;45.90;;;;;;6242186;28;20044;-72
2021/12/11 01:13:34;;;;;;;7.50;5.95;;;20.20;46.00;;;;;;6242175;28;20574;-72
2021/12/11 01:16:36;;;;;;;9.40;6.72;;;20.20;46.00;;;;;;6243321;28;20055;-71
2021/12/11 01:19:39;;;;;;;9.77;7.07;;;20.20;46.00;;;;;;6243551;28;20100;-72
2021/12/11 01:22:40;;;;;;;8.95;6.40;;;20.20;46.00;;;;;;6242929;28;20032;-72
2021/12/11 01:25:41;;;;;;;8.48;6.03;;;20.20;46.00;;;;;;6244182;28;20033;-71
2021/12/11 01:28:42;;;;;;;9.88;7.18;;;20.20;46.00;;;;;;6243618;28;20048;-72
2021/12/11 01:31:43;;;;;;;9.60;6.80;;;20.20;46.00;;;;;;6233243;28;20029;-72
2021/12/11 01:34:45;;;;;;;8.45;6.13;;;20.20;46.20;;;;;;6243057;28;20574;-72
2021/12/11 01:37:49;;;;;;;9.20;6.35;;;20.20;46.00;;;;;;6241895;28;20079;-72
2021/12/11 01:40:54;;;;;;;8.20;5.97;;;20.20;46.00;;;;;;6241846;28;20036;-72
2021/12/11 01:43:59;;;;;;;8.95;6.63;;;20.20;46.00;;;;;;6243130;28;20063;-72
2021/12/11 01:47:12;;;;;;;9.15;6.22;;;20.20;46.00;;;;;;6243407;28;20036;-72
2021/12/11 01:50:29;;;;;;;8.98;6.63;;;20.20;46.10;;;;;;6243069;28;20033;-72
2021/12/11 01:53:55;;;;;;;8.20;6.07;;;20.20;46.10;;;;;;6241714;28;20026;-71
2021/12/11 01:57:01;;;;;;;9.13;6.05;;;20.20;46.10;;;;;;6243287;28;20382;-72
2021/12/11 02:00:18;;;;;;;8.38;6.25;;;20.20;46.10;;;;;;6241633;28;20113;-72
2021/12/11 02:03:24;;;;;;;7.95;5.72;;;20.20;46.10;;;;;;6241490;28;20080;-72
2021/12/11 02:06:30;;;;;;;8.65;5.95;;;20.20;46.00;;;;;;6261214;28;20478;-72
2021/12/11 02:09:34;;;;;;;8.57;5.72;;;20.20;46.10;;;;;;6246928;28;20029;-72
2021/12/11 02:12:39;;;;;;;8.73;6.18;;;20.20;46.10;;;;;;6242792;28;20430;-72
2021/12/11 02:15:47;;;;;;;;;;;20.20;46.20;;;;;;6243391;28;20033;-72
2021/12/11 02:18:53;;;;;;;8.00;5.88;;;20.20;46.10;;;;;;6241163;28;19912;-72
2021/12/11 02:22:04;;;;;;;6.90;5.53;;;20.20;46.10;;;;;;6241834;28;20368;-72
2021/12/11 02:25:23;;;;;;;8.30;5.95;;;20.20;46.10;;;;;;6240954;28;20044;-72
2021/12/11 02:28:27;;;;;;;7.07;5.55;;;20.20;46.10;;;;;;6241199;28;20033;-72
2021/12/11 02:31:35;;;;;;;7.82;5.75;;;20.20;46.10;;;;;;6241163;28;20494;-72
2021/12/11 02:34:41;;;;;;;7.25;5.40;;;20.20;46.10;;;;;;6244333;28;20071;-72
2021/12/11 02:38:20;;;;;;;7.38;5.50;;;20.20;46.20;;;;;;6247590;28;20041;-71
2021/12/11 02:41:49;;;;;;;7.60;5.82;;;20.20;46.20;;;;;;6248111;28;20026;-72
2021/12/11 02:45:05;;;;;;;7.93;5.63;;;20.20;46.10;;;;;;6270349;28;20025;-72
2021/12/11 02:48:34;;;;;;;6.85;5.57;;;20.20;46.10;;;;;;6256908;28;20038;-70
2021/12/11 02:51:46;;;;;;;7.32;5.53;;;20.20;46.20;;;;;;6241723;28;20044;-72
2021/12/11 02:54:58;;;;;;;7.43;5.75;;;20.20;46.20;;;;;;6246734;28;20049;-72
2021/12/11 02:58:08;;;;;;;6.70;5.45;;;20.20;46.20;;;;;;6245159;28;20555;-71
2021/12/11 03:01:46;;;;;;;8.20;5.88;;;20.20;46.20;;;;;;6246636;28;20024;-72
2021/12/11 03:04:54;;;;;;;6.93;5.20;;;20.20;46.20;;;;;;6244980;28;20502;-72
2021/12/11 03:07:54;;;;;;;6.75;5.13;;;20.20;46.20;;;;;;6264375;28;20082;-72
2021/12/11 03:11:02;;;;;;;7.53;5.43;;;20.20;46.20;;;;;;6245304;28;20029;-71
2021/12/11 03:14:07;;;;;;;7.13;5.47;;;20.20;46.20;;;;;;6260060;28;20052;-72
2021/12/11 03:17:09;;;;;;;6.80;5.50;;;20.20;46.20;;;;;;6270809;28;20524;-72
2021/12/11 03:20:13;;;;;;;6.93;5.28;;;20.20;46.20;;;;;;6245987;28;20495;-71
2021/12/11 03:23:14;;;;;;;7.25;5.47;;;20.20;46.20;;;;;;6246262;28;20068;-71
2021/12/11 03:26:15;;;;;;;7.38;5.10;;;20.20;46.20;;;;;;6245684;28;20071;-72
2021/12/11 03:29:16;;;;;;;6.40;5.30;;;20.20;46.20;;;;;;6244846;28;20032;-72
2021/12/11 03:32:18;;;;;;;6.43;4.80;;;20.20;46.20;;;;;;6235575;28;20026;-72
2021/12/11 03:35:20;;;;;;;7.03;5.00;;;20.20;46.20;;;;;;6245024;28;20025;-72
2021/12/11 03:38:21;;;;;;;7.50;5.60;;;20.20;46.20;;;;;;6245387;28;20786;-72
2021/12/11 03:41:23;;;;;;;6.72;5.32;;;20.20;46.30;;;;;;6246971;28;20029;-72
2021/12/11 03:44:31;;;;;;;7.18;5.10;;;20.20;46.20;;;;;;6270085;28;20111;-72
2021/12/11 03:47:36;;;;;;;7.70;5.22;;;20.20;46.20;;;;;;6269107;28;20033;-72
2021/12/11 03:50:38;;;;;;;7.28;5.20;;;20.20;46.20;;;;;;6270039;28;20036;-71
2021/12/11 03:53:40;;;;;;;7.55;5.00;;;20.20;46.20;;;;;;6251821;28;20203;-72
2021/12/11 03:56:41;;;;;;;7.10;5.28;;;20.20;46.20;;;;;;6245258;28;20028;-72
2021/12/11 04:00:34;;;;;;;6.78;5.05;;;20.20;46.20;;;;;;6243772;28;20025;-72
2021/12/11 04:03:39;;;;;;;6.78;5.00;;;20.20;46.20;;;;;;6244774;28;20043;-71
2021/12/11 04:06:39;;;;;;;6.72;4.95;;;20.20;46.30;;;;;;6243691;28;20021;-71
2021/12/11 04:09:40;;;;;;;5.97;4.55;;;20.20;46.30;;;;;;6244679;28;20091;-71
2021/12/11 04:12:42;;;;;;;7.57;5.25;;;20.20;46.30;;;;;;6244784;28;20042;-72
2021/12/11 04:15:47;;;;;;;6.45;5.10;;;20.20;46.20;;;;;;6243561;28;20033;-72
2021/12/11 04:18:48;;;;;;;;;;;20.20;46.30;;;;;;6243851;28;20026;-72
2021/12/11 04:21:50;;;;;;;6.30;4.80;;;20.20;46.30;;;;;;6243516;28;19951;-72
2021/12/11 04:24:51;;;;;;;6.00;4.75;;;20.20;46.20;;;;;;6244794;28;20048;-72
2021/12/11 04:27:54;;;;;;;6.28;4.60;;;20.20;46.30;;;;;;6244362;28;20483;-72
2021/12/11 04:31:03;;;;;;;6.30;4.93;;;20.20;46.30;;;;;;6235761;28;20052;-72
2021/12/11 04:34:07;;;;;;;6.32;4.78;;;20.20;46.30;;;;;;6218949;28;20026;-72
2021/12/11 04:37:30;;;;;;;5.17;3.80;;;20.20;46.30;;;;;;6226749;28;20060;-72
2021/12/11 04:40:36;;;;;;;6.60;4.50;;;20.20;46.30;;;;;;6242705;28;20394;-71
2021/12/11 04:43:37;;;;;;;6.10;4.60;;;20.20;46.30;;;;;;6242956;28;20063;-72
2021/12/11 04:46:38;;;;;;;6.78;5.07;;;20.20;46.30;;;;;;6242607;28;20022;-72
2021/12/11 04:49:49;;;;;;;6.93;5.00;;;20.20;46.30;;;;;;6242843;28;20017;-72
2021/12/11 04:52:58;;;;;;;6.13;4.63;;;20.20;46.20;;;;;;6242481;28;20021;-72
2021/12/11 04:56:31;;;;;;;6.40;4.55;;;20.20;46.30;;;;;;6242089;28;20056;-71
2021/12/11 05:00:08;;;;;;;6.60;4.43;;;20.20;46.30;;;;;;6243673;28;20463;-72
2021/12/11 05:03:28;;;;;;;6.72;4.88;;;20.20;46.30;;;;;;6254579;28;20021;-72
2021/12/11 05:06:43;;;;;;;7.30;4.82;;;20.20;46.30;;;;;;6268131;28;20362;-72
2021/12/11 05:10:53;;;;;;;6.32;4.75;;;20.20;46.30;;;;;;6242550;28;20029;-71
2021/12/11 05:13:44;;;;;;;5.50;4.57;;;20.20;46.30;;;;;;6240971;28;20503;-71
2021/12/11 05:16:46;;;;;;;6.45;4.82;;;20.20;46.30;;;;;;6242775;28;20099;-72
2021/12/11 05:19:47;;;;;;;6.85;5.25;;;20.20;46.30;;;;;;6248366;28;20021;-72
2021/12/11 05:22:48;;;;;;;6.00;4.72;;;20.20;46.30;;;;;;6260669;28;20031;-72
2021/12/11 05:25:50;;;;;;;6.13;4.53;;;20.20;46.90;;;;;;6242340;28;20056;-72
2021/12/11 05:28:50;;;;;;;6.50;5.00;;;20.20;46.20;;;;;;6265541;28;20029;-72
2021/12/11 05:31:51;;;;;;;6.47;4.82;;;20.20;46.20;;;;;;6250705;28;20079;-72
2021/12/11 05:34:53;;;;;;;5.93;4.35;;;20.20;46.20;;;;;;6243400;28;20578;-72
2021/12/11 05:37:56;;;;;;;6.65;4.93;;;20.20;46.10;;;;;;6241860;28;20037;-71
2021/12/11 05:41:00;;;;;;;5.82;4.57;;;20.20;46.10;;;;;;6243451;28;20022;-71
2021/12/11 05:44:01;;;;;;;6.22;4.53;;;20.20;46.10;;;;;;6241931;28;20032;-71
2021/12/11 05:47:04;;;;;;;5.53;4.28;;;20.20;46.10;;;;;;6243130;28;20685;-71
2021/12/11 05:50:09;;;;;;;5.90;4.68;;;20.20;46.10;;;;;;6243460;28;20143;-70
2021/12/11 05:53:10;;;;;;;5.00;4.13;;;20.20;46.10;;;;;;6242059;28;20052;-71
2021/12/11 05:56:14;;;;;;;6.15;4.60;;;20.20;46.10;;;;;;6243249;28;20603;-72
2021/12/11 05:59:17;;;;;;;6.03;4.68;;;20.20;46.00;;;;;;6241894;28;20018;-72
2021/12/11 06:02:24;;;;;;;6.57;4.53;;;20.20;46.00;;;;;;6242454;28;20056;-72
2021/12/11 06:05:25;;;;;;;5.65;4.40;;;20.20;46.00;;;;;;6243111;28;20553;-72
2021/12/11 06:08:26;;;;;;;6.25;4.53;;;20.20;46.00;;;;;;6245769;28;20079;-71
2021/12/11 06:11:27;;;;;;;6.10;4.57;;;20.20;46.10;;;;;;6248327;28;20040;-71
2021/12/11 06:14:28;;;;;;;6.40;4.57;;;20.30;46.10;;;;;;6247820;28;20037;-71
2021/12/11 06:17:31;;;;;;;6.60;4.63;;;20.20;46.00;;;;;;6247723;28;20028;-71
2021/12/11 06:20:33;;;;;;;6.03;4.57;;;20.20;46.00;;;;;;6246310;28;20025;-72
2021/12/11 06:23:34;;;;;;;6.03;4.30;;;20.30;46.10;;;;;;6247724;28;20776;-71
2021/12/11 06:26:34;;;;;;;6.22;4.60;;;20.20;46.00;;;;;;6258552;28;20034;-72
2021/12/11 06:29:35;;;;;;;7.13;4.93;;;20.20;46.00;;;;;;6247398;28;20026;-71
2021/12/11 06:32:36;;;;;;;5.85;4.30;;;20.20;46.00;;;;;;6238350;28;20026;-72
2021/12/11 06:35:43;;;;;;;4.82;3.90;;;20.30;46.10;;;;;;6247294;28;20040;-72
2021/12/11 06:38:46;;;;;;;6.07;4.55;;;20.20;46.00;;;;;;6247252;28;20028;-72
2021/12/11 06:41:50;;;;;;;6.35;4.57;;;20.20;46.00;;;;;;6245823;28;20022;-72
2021/12/11 06:44:51;;;;;;;5.32;4.38;;;20.20;46.00;;;;;;6247256;28;20675;-72
2021/12/11 06:47:52;;;;;;;6.63;4.88;;;20.20;45.90;;;;;;6246049;28;20040;-72
2021/12/11 06:50:54;;;;;;;5.03;4.03;;;20.30;46.10;;;;;;6246059;28;20037;-72
2021/12/11 06:53:58;;;;;;;5.63;4.20;;;20.20;46.00;;;;;;6246641;28;20120;-71
2021/12/11 06:56:59;;;;;;;4.90;3.90;;;20.20;46.00;;;;;;6246934;28;20067;-72
2021/12/11 07:00:00;;;;;;;5.75;4.07;;;20.20;46.00;;;;;;6246156;28;20076;-72
2021/12/11 07:03:01;;;;;;;5.57;4.18;;;20.20;46.00;;;;;;6258155;28;20543;-72
2021/12/11 07:06:03;;;;;;;5.07;3.88;;;20.20;46.70;;;;;;6269999;28;20029;-71
2021/12/11 07:09:05;;;;;;;4.47;3.58;;;20.30;46.20;;;;;;6269930;28;20401;-72
2021/12/11 07:12:07;;;;;;;5.90;3.70;;;20.20;46.00;;;;;;6268832;28;20040;-72
2021/12/11 07:15:10;;;;;;;5.65;4.32;;;20.20;46.00;;;;;;6246800;28;20076;-72
2021/12/11 07:18:10;;;;;;;6.20;4.32;;;20.20;46.00;;;;;;6255941;28;20029;-72
2021/12/11 07:21:12;;;;;;;6.00;4.15;;;20.20;46.00;;;;;;6269206;28;20077;-71
2021/12/11 07:24:15;;;;;;;6.57;4.53;;;20.20;46.00;;;;;;6253203;28;20052;-72
2021/12/11 07:27:17;;;;;;;5.50;4.40;;;20.20;46.00;;;;;;6244565;28;20521;-72
2021/12/11 07:30:17;;;;;;;5.93;4.35;;;20.20;46.00;;;;;;6241217;28;20025;-72
2021/12/11 07:33:19;;;;;;;4.85;3.70;;;20.20;46.00;;;;;;6240865;28;20152;-72
2021/12/11 07:36:20;;;;;;;5.05;3.97;;;20.20;46.00;;;;;;6246004;28;20037;-72
2021/12/11 07:39:22;;;;;;;5.38;4.20;;;20.20;46.00;;;;;;6263443;28;20028;-71
2021/12/11 07:42:22;;;;;;;5.28;4.10;;;20.20;46.00;;;;;;6269402;28;20025;-72
2021/12/11 07:45:25;;;;;;;5.60;4.03;;;20.20;46.00;;;;;;6270423;28;20106;-72
2021/12/11 07:48:26;;;;;;;5.90;4.13;;;20.20;46.00;;;;;;6253061;28;20022;-72
2021/12/11 07:51:28;;;;;;;5.75;4.43;;;20.20;46.00;;;;;;6245836;28;20032;-71
2021/12/11 07:54:28;;;;;;;5.93;3.90;;;20.20;46.00;;;;;;6244411;28;20030;-72
2021/12/11 07:57:29;;;;;;;5.20;3.95;;;20.20;46.00;;;;;;6247381;28;20032;-71
2021/12/11 08:00:32;;;;;;;5.40;4.10;;;20.20;46.00;;;;;;6270174;28;20082;-72
2021/12/11 08:03:33;;;;;;;4.97;3.95;;;20.20;46.00;;;;;;6253974;28;20113;-72
2021/12/11 08:06:37;;;;;;;5.15;4.15;;;20.20;46.10;;;;;;6243933;28;20052;-72
2021/12/11 08:09:38;;;;;;;5.32;4.10;;;20.20;46.00;;;;;;6243585;28;20075;-72
2021/12/11 08:12:40;;;;;;;5.53;3.80;;;20.20;46.00;;;;;;6260672;28;20045;-72
2021/12/11 08:15:42;;;;;;;5.60;4.15;;;20.20;46.00;;;;;;6269191;28;20545;-71
2021/12/11 08:18:43;;;;;;;5.90;3.95;;;20.20;46.00;;;;;;6269555;28;20025;-72
2021/12/11 08:21:48;;;;;;;6.63;4.50;;;20.20;46.00;;;;;;6269457;28;20025;-71
2021/12/11 08:24:50;;;;;;;5.43;4.18;;;20.20;46.10;;;;;;6252626;28;20519;-71
2021/12/11 08:27:51;;;;;;;5.75;3.92;;;20.20;46.00;;;;;;6244641;28;20479;-72
2021/12/11 08:30:53;;;;;;;5.03;4.00;;;20.20;46.00;;;;;;6243456;28;20053;-72
2021/12/11 08:33:55;;;;;;;5.25;3.88;;;20.20;46.00;;;;;;6266269;28;20032;-72
2021/12/11 08:36:56;;;;;;;6.05;4.07;;;20.20;46.00;;;;;;6261200;28;20530;-72
2021/12/11 08:39:56;;;;;;;6.00;4.25;;;20.20;46.00;;;;;;6244483;28;20048;-72
2021/12/11 08:42:58;;;;;;;5.13;4.35;;;20.20;46.00;;;;;;6244214;28;20029;-72
2021/12/11 08:46:23;;;;;;;5.03;3.83;;;20.20;46.00;;;;;;6244518;28;20076;-72
2021/12/11 08:49:28;;;;;;;5.05;3.58;;;20.20;46.00;;;;;;6220069;28;20041;-72
2021/12/11 08:52:36;;;;;;;5.95;4.20;;;20.20;46.00;;;;;;6244486;28;20029;-72
2021/12/11 08:55:42;;;;;;;5.40;4.18;;;20.20;46.00;;;;;;6245340;28;20040;-72
2021/12/11 08:58:45;;;;;;;6.88;4.13;;;20.20;46.00;;;;;;6244291;28;20018;-72
2021/12/11 09:02:04;;;;;;;5.50;4.03;;;20.20;46.00;;;;;;6243502;28;20076;-72
2021/12/11 09:05:17;;;;;;;5.30;3.88;;;20.20;46.00;;;;;;6268789;28;20025;-72
2021/12/11 09:08:40;;;;;;;5.13;4.05;;;20.20;46.00;;;;;;6268905;28;20043;-72
2021/12/11 09:12:09;;;;;;;5.22;3.83;;;20.20;46.00;;;;;;6267323;28;20052;-71
2021/12/11 09:15:16;;;;;;;4.95;3.47;;;20.20;46.10;;;;;;6220334;28;20072;-71
2021/12/11 09:18:24;;;;;;;4.72;3.60;;;20.20;46.00;;;;;;6257255;28;20466;-72
2021/12/11 09:21:35;;;;;;;4.50;3.78;;;20.20;46.10;;;;;;6242690;28;20029;-71
2021/12/11 09:25:06;;;;;;;4.78;3.40;;;20.20;46.00;;;;;;6242980;28;20063;-72
2021/12/11 09:28:18;;;;;;;5.13;4.10;;;20.20;46.10;;;;;;6245491;28;20113;-72
2021/12/11 09:31:34;;;;;;;4.40;3.53;;;20.30;46.20;;;;;;6242103;28;20697;-72
2021/12/11 09:34:40;;;;;;;4.70;3.70;;;20.20;46.10;;;;;;6243552;28;20067;-72
2021/12/11 09:37:43;;;;;;;5.07;3.78;;;20.30;46.20;;;;;;6243857;28;20103;-72
2021/12/11 09:40:44;;;;;;;4.93;3.90;;;20.30;46.20;;;;;;6243418;28;20032;-72
2021/12/11 09:43:56;;;;;;;4.72;3.67;;;20.30;46.20;;;;;;6247279;28;20026;-72
2021/12/11 09:47:07;;;;;;;5.20;3.95;;;20.30;46.20;;;;;;6249271;28;20022;-72
2021/12/11 09:50:16;;;;;;;4.78;3.63;;;20.30;46.30;;;;;;6248928;28;20026;-72
2021/12/11 09:53:19;;;;;;;5.43;3.95;;;20.30;46.20;;;;;;6247269;28;20068;-72
2021/12/11 09:56:31;;;;;;;4.82;3.75;;;20.30;46.20;;;;;;6248292;28;20079;-72
2021/12/11 09:59:34;;;;;;;4.85;3.75;;;20.30;46.20;;;;;;6246879;28;20025;-72
2021/12/11 10:02:37;;;;;;;4.20;3.45;;;20.30;46.20;;;;;;6247857;28;20048;-72
2021/12/11 10:05:49;;;;;;;5.00;3.70;;;20.30;46.20;;;;;;6248171;28;20030;-72
2021/12/11 10:09:07;;;;;;;4.88;3.78;;;20.30;46.20;;;;;;6261407;28;20078;-72
2021/12/11 10:12:14;;;;;;;4.38;3.55;;;20.30;46.30;;;;;;6274112;28;20024;-72
2021/12/11 10:15:26;;;;;;;5.20;3.85;;;20.30;46.30;;;;;;6222287;28;20053;-72
2021/12/11 10:18:29;;;;;;;5.07;3.78;;;20.30;46.30;;;;;;6233461;28;20724;-72
2021/12/11 10:21:35;;;;;;;3.90;3.10;;;20.30;46.30;;;;;;6246277;28;20061;-72
2021/12/11 10:24:37;;;;;;;3.85;3.20;;;20.30;46.30;;;;;;6247731;28;20486;-71
2021/12/11 10:27:38;;;;;;;3.85;3.20;;;20.30;46.30;;;;;;6245956;28;20459;-71
2021/12/11 10:30:45;;;;;;;4.97;3.85;;;20.30;46.30;;;;;;6247753;28;20445;-71
2021/12/11 10:33:47;;;;;;;4.15;3.30;;;20.30;46.30;;;;;;6247283;28;20029;-72
2021/12/11 10:36:59;;;;;;;4.90;3.53;;;20.30;46.30;;;;;;6245961;28;20040;-72
2021/12/11 10:40:25;;;;;;;4.75;3.65;;;20.30;46.30;;;;;;6247344;28;20024;-72
2021/12/11 10:43:42;;;;;;;4.60;3.60;;;20.30;46.40;;;;;;6245897;28;20075;-73
2021/12/11 10:46:49;;;;;;;3.67;3.10;;;20.40;46.40;;;;;;6243206;28;20092;-73
2021/12/11 10:49:50;;;;;;;7.95;3.38;;;20.30;46.40;;;;;;6223079;28;20060;-73
2021/12/11 10:52:51;;;;;;;5.45;3.47;;;20.30;46.30;;;;;;6232409;28;20446;-73
2021/12/11 10:55:54;;;;;;;5.63;3.60;;;20.40;46.40;;;;;;6246483;28;20026;-73
2021/12/11 10:59:03;;;;;;;6.97;3.90;;;20.40;46.30;;;;;;6245965;28;20025;-74
2021/12/11 11:02:17;;;;;;;4.70;3.53;;;20.30;46.20;;;;;;6245826;28;20032;-72
2021/12/11 11:05:22;;;;;;;6.82;3.72;;;20.40;46.30;;;;;;6246129;28;20040;-72
2021/12/11 11:08:23;;;;;;;5.75;4.25;;;20.40;46.40;;;;;;6246796;28;20048;-73
2021/12/11 11:11:27;;;;;;;10.80;5.75;;;20.30;45.80;;;;;;6247886;28;20348;-72
2021/12/11 11:14:30;;;;;;;7.25;4.95;;;20.30;45.20;;;;;;6246258;28;20045;-72
2021/12/11 11:17:33;;;;;;;6.45;4.28;;;20.30;45.50;;;;;;6249867;28;20593;-73
2021/12/11 11:20:40;;;;;;;7.90;4.80;;;20.30;45.70;;;;;;6271374;28;20024;-73
2021/12/11 11:23:43;;;;;;;8.00;4.57;;;20.30;45.80;;;;;;6270831;28;20082;-72
2021/12/11 11:26:46;;;;;;;6.07;4.32;;;20.30;45.80;;;;;;6252081;28;20029;-75
2021/12/11 11:29:48;;;;;;;9.23;4.43;;;20.30;45.80;;;;;;6244917;28;20060;-75
2021/12/11 11:32:49;;;;;;;5.78;4.30;;;20.30;45.80;;;;;;6248255;28;20068;-75
2021/12/11 11:35:51;;;;;;;6.20;4.60;;;20.30;45.90;;;;;;6269619;28;20148;-73
2021/12/11 11:38:56;;;;;;;9.73;4.50;;;20.30;45.90;;;;;;6253544;28;20021;-73
2021/12/11 11:42:03;;;;;;;6.93;4.22;;;20.30;45.90;;;;;;6265202;28;20389;-74
2021/12/11 11:45:07;;;;;;;7.95;4.22;;;20.30;45.90;;;;;;6246474;28;20034;-73
2021/12/11 11:48:09;;;;;;;6.60;4.43;;;20.30;45.90;;;;;;6260283;28;20052;-73
2021/12/11 11:51:24;;;;;;;7.68;4.90;;;20.30;46.00;;;;;;6269597;28;20029;-75
2021/12/11 11:54:28;;;;;;;5.68;4.38;;;20.30;46.00;;;;;;6246286;28;20013;-73
2021/12/11 11:57:33;;;;;;;6.03;4.17;;;20.30;46.00;;;;;;6245358;28;20040;-72
2021/12/11 12:00:53;;;;;;;5.65;4.28;;;20.30;46.00;;;;;;6244444;28;20275;-74
2021/12/11 12:03:58;;;;;;;5.60;4.28;;;20.30;46.00;;;;;;6262692;28;20028;-73
2021/12/11 12:07:01;;;;;;;5.93;4.13;;;20.30;46.00;;;;;;6268851;28;20028;-74
2021/12/11 12:10:24;;;;;;;7.20;4.22;;;20.30;46.00;;;;;;6247448;28;20147;-73
2021/12/11 12:13:27;;;;;;;5.70;3.70;;;20.30;46.10;;;;;;6252299;28;20060;-73
2021/12/11 12:16:32;;;;;;;4.85;3.75;;;20.30;46.10;;;;;;6269877;28;20052;-73
2021/12/11 12:19:33;;;;;;;7.68;4.07;;;20.30;46.10;;;;;;6253840;28;20021;-74
2021/12/11 12:22:34;;;;;;;5.40;4.10;;;20.30;46.10;;;;;;6243999;28;20487;-73
2021/12/11 12:25:36;;;;;;;6.53;4.45;;;20.30;46.10;;;;;;6245305;28;20163;-72
2021/12/11 12:28:37;;;;;;;4.85;3.72;;;20.30;46.10;;;;;;6265212;28;20094;-71
2021/12/11 12:31:45;;;;;;;5.45;4.03;;;20.30;46.20;;;;;;6253768;28;20490;-72
2021/12/11 12:34:46;;;;;;;4.75;3.80;;;20.30;46.10;;;;;;6244069;28;20060;-71
2021/12/11 12:37:50;;;;;;;6.22;4.35;;;20.30;46.10;;;;;;6244214;28;20117;-70
2021/12/11 12:41:08;;;;;;;5.07;4.00;;;20.30;46.20;;;;;;6246022;28;20242;-68
2021/12/11 12:44:18;;;;;;;4.72;3.60;;;20.30;46.20;;;;;;6244113;28;20041;-70
2021/12/11 12:47:24;;;;;;;7.60;3.55;;;20.30;46.10;;;;;;6244485;28;20032;-71
2021/12/11 12:50:37;;;;;;;5.10;3.97;;;20.30;46.20;;;;;;6242631;28;20025;-71
2021/12/11 12:53:40;;;;;;;4.93;3.70;;;20.30;46.20;;;;;;6261588;28;20432;-70
2021/12/11 12:57:00;;;;;;;5.15;3.90;;;20.40;46.30;;;;;;6268466;28;20483;-71
2021/12/11 13:00:32;;;;;;;5.85;4.25;;;20.30;46.20;;;;;;6243567;28;20539;-70
2021/12/11 13:03:37;;;;;;;5.00;3.92;;;20.30;46.20;;;;;;6242262;28;20159;-69
2021/12/11 13:06:43;;;;;;;5.68;3.80;;;20.30;46.10;;;;;;6245202;28;20503;-70
2021/12/11 13:09:52;;;;;;;9.20;4.00;;;20.40;46.20;;;;;;6265169;28;20128;-70
2021/12/11 13:12:53;;;;;;;10.38;3.85;;;20.40;46.30;;;;;;6266653;28;20053;-70
2021/12/11 13:16:09;;;;;;;4.15;3.17;;;20.40;46.30;;;;;;6244533;28;20025;-70
2021/12/11 13:19:18;;;;;;;7.40;4.07;;;20.40;46.30;;;;;;6257768;28;20036;-70
2021/12/11 13:22:29;;;;;;;7.68;3.70;;;20.40;46.30;;;;;;6267325;28;20414;-69
2021/12/11 13:25:40;;;;;;;6.22;3.72;;;20.40;46.40;;;;;;6226595;28;20102;-70
2021/12/11 13:28:48;;;;;;;6.55;3.60;;;20.40;46.40;;;;;;6245556;28;20666;-71
2021/12/11 13:32:00;;;;;;;4.43;3.70;;;20.40;46.50;;;;;;6250760;28;20102;-71
2021/12/11 13:35:07;;;;;;;9.07;4.20;;;20.40;46.60;;;;;;6239444;28;20026;-72
2021/12/11 13:38:09;;;;;;;5.90;3.60;;;20.40;47.30;;;;;;6258883;28;20056;-70
2021/12/11 13:41:21;;;;;;;4.13;3.28;;;20.40;46.60;;;;;;6267887;28;20017;-69
2021/12/11 13:44:22;;;;;;;5.45;3.53;;;20.40;46.60;;;;;;6243337;28;20018;-70
2021/12/11 13:47:28;;;;;;;6.07;3.90;;;20.40;46.60;;;;;;6251288;28;20541;-71
2021/12/11 13:50:52;;;;;;;7.72;3.30;;;20.40;46.50;;;;;;6267261;28;20043;-70
2021/12/11 13:53:54;;;;;;;5.47;3.53;;;20.40;46.50;;;;;;6258155;28;20025;-70
2021/12/11 13:56:59;;;;;;;5.45;3.20;;;20.40;46.50;;;;;;6264823;28;20072;-70
2021/12/11 14:00:04;;;;;;;5.63;3.28;;;20.40;46.50;;;;;;6242949;28;20471;-70
2021/12/11 14:03:05;;;;;;;5.78;3.55;;;20.40;46.50;;;;;;6254451;28;20507;-69
2021/12/11 14:06:08;;;;;;;6.13;3.67;;;20.40;46.50;;;;;;6267324;28;20036;-70
2021/12/11 14:09:09;;;;;;;4.32;3.45;;;20.40;46.50;;;;;;6265867;28;20013;-70
2021/12/11 14:12:11;;;;;;;6.38;3.60;;;20.40;46.40;;;;;;6267883;28;20067;-70
2021/12/11 14:15:11;;;;;;;3.78;3.03;;;20.40;46.40;;;;;;6249362;28;20486;-70
2021/12/11 14:18:14;;;;;;;4.75;2.90;;;20.40;46.40;;;;;;6249220;28;20088;-71
2021/12/11 14:21:15;;;;;;;4.25;3.55;;;20.40;46.40;;;;;;6267856;28;20045;-71
2021/12/11 14:24:16;;;;;;;4.68;3.47;;;20.40;46.50;;;;;;6254007;28;20036;-71
2021/12/11 14:27:17;;;;;;;5.65;3.20;;;20.40;46.40;;;;;;6253347;28;20517;-70
2021/12/11 14:30:20;;;;;;;5.00;3.35;;;20.40;46.40;;;;;;6268218;28;20025;-70
2021/12/11 14:33:21;;;;;;;4.95;3.38;;;20.40;47.20;;;;;;6265782;28;20371;-72
2021/12/11 14:36:26;;;;;;;4.35;3.35;;;20.40;46.40;;;;;;6269173;28;20472;-71
2021/12/11 14:39:29;;;;;;;4.68;3.47;;;20.40;46.40;;;;;;6247465;28;20036;-71
2021/12/11 14:42:30;;;;;;;4.05;2.83;;;20.40;46.40;;;;;;6247668;28;20522;-70
2021/12/11 14:45:34;;;;;;;6.15;3.30;;;20.30;46.30;;;;;;6247428;28;20035;-71
2021/12/11 14:48:36;;;;;;;4.00;3.20;;;20.40;46.40;;;;;;6247201;28;20036;-71
2021/12/11 14:51:38;;;;;;;6.70;3.15;;;20.30;46.40;;;;;;6246689;28;20029;-70
2021/12/11 14:54:40;;;;;;;5.07;3.20;;;20.30;46.30;;;;;;6271207;28;20028;-70
2021/12/11 14:57:40;;;;;;;4.20;3.35;;;20.40;46.40;;;;;;6261992;28;20056;-70
2021/12/11 15:00:46;;;;;;;4.60;3.60;;;20.40;47.10;;;;;;6246488;28;20022;-70
2021/12/11 15:03:47;;;;;;;3.80;3.25;;;20.40;46.40;;;;;;6263253;28;20415;-70
2021/12/11 15:06:48;;;;;;;7.20;3.30;;;20.30;46.30;;;;;;6271480;28;20578;-70
2021/12/11 15:09:51;;;;;;;4.15;3.20;;;20.40;46.50;;;;;;6221847;28;20068;-71
2021/12/11 15:12:51;;;;;;;4.40;3.22;;;20.40;46.50;;;;;;6237265;28;20076;-71
2021/12/11 15:15:55;;;;;;;4.95;2.97;;;20.30;46.40;;;;;;6247989;28;20418;-71
2021/12/11 15:18:56;;;;;;;3.53;2.95;;;20.30;46.30;;;;;;6261926;28;20040;-70
2021/12/11 15:21:57;;;;;;;4.45;3.05;;;20.30;46.30;;;;;;6270645;28;20033;-71
2021/12/11 15:25:06;;;;;;;3.85;2.70;;;20.30;46.30;;;;;;6271142;28;20131;-69
2021/12/11 15:28:08;;;;;;;4.47;3.30;;;20.40;46.40;;;;;;6271334;28;20502;-70
2021/12/11 15:31:23;;;;;;;4.93;3.35;;;20.40;46.40;;;;;;6271222;28;20021;-70
2021/12/11 15:34:28;;;;;;;3.63;3.00;;;20.40;46.40;;;;;;6272123;28;20021;-70
2021/12/11 15:37:29;;;;;;;3.95;3.30;;;20.30;46.30;;;;;;6259674;28;20030;-70
2021/12/11 15:40:31;;;;;;;3.72;2.70;;;20.40;46.40;;;;;;6245640;28;20021;-70
2021/12/11 15:43:35;;;;;;;3.60;2.72;;;20.40;46.50;;;;;;6246943;28;20109;-70
2021/12/11 15:46:35;;;;;;;3.60;3.00;;;20.40;46.40;;;;;;6246946;28;20026;-69
2021/12/11 15:49:37;;;;;;;4.13;3.25;;;20.40;46.40;;;;;;6245980;28;20617;-69
2021/12/11 15:52:38;;;;;;;3.42;2.72;;;20.40;46.40;;;;;;6246173;28;20017;-69
2021/12/11 15:55:40;;;;;;;4.07;2.67;;;20.40;46.40;;;;;;6246810;28;20083;-69
2021/12/11 15:58:44;;;;;;;4.88;2.83;;;20.40;46.40;;;;;;6246814;28;20433;-69
2021/12/11 16:01:46;;;;;;;3.63;2.80;;;20.40;46.40;;;;;;6246836;28;20029;-69
2021/12/11 16:04:47;;;;;;;4.68;3.20;;;20.40;46.40;;;;;;6246849;28;20071;-69
2021/12/11 16:07:49;;;;;;;4.05;2.97;;;20.30;46.30;;;;;;6245060;28;20029;-70
2021/12/11 16:10:50;;;;;;;3.53;3.00;;;20.40;46.40;;;;;;6245909;28;20025;-71